»·PEaware :: SKW3387 KPDX-KSEA

SKW3387 :: KPDX-KSEA

FLIGHT INFORMATION

Flight Status: Arrived
Operator:
SkyWest Airlines
More flights by this operator :: More flights under this callsign
Pilot: Anonymous 17611 (17611)
Aircraft: CANADAIR CL-600 CRJ-200
(CRJ2)
More flights by this aircraft type
Origin: KPDX Portland Intl
United States
Destination: KSEA Seattle-Tacoma Intl
United States
More flights between these airports :: More routes between these airports
Route: COUGA KRIEG HAWKZ6
File this flight plan on PilotEdge
Remarks:
Altitude:
(Current/Filed)
20,000ft
Speed:
(Current/Filed)
480kts
Departed: 27-Dec-17 12:48 PM
Arrived: 27-Dec-17 01:23 PM
Distance/Time
Traveled:
112nm/0:35
Distance/Time
To Go:
Arrived

Flight Plot

Page will automatically refresh every two minutes.

Flight plan parsing failed; only flown route is shown


Map Options




Map Legend


Flown Route
Filed Route
Departure Airport
Arrival Airport
Navaid (VOR, NDB)
Fix

Horizontal Profiles

Position Reports

Time Latitude Longitude Heading Altitude Ground
Speed
27-Dec-17 12:07 45.586924 -122.593125 41 22ft 0kts
27-Dec-17 12:08 45.586924 -122.593125 41 22ft 0kts
27-Dec-17 12:09 45.589255 -122.598434 19 22ft 0kts
27-Dec-17 12:10 45.589255 -122.598434 19 22ft 0kts
27-Dec-17 12:11 45.589255 -122.598434 19 22ft 0kts
27-Dec-17 12:12 45.589255 -122.598434 19 22ft 0kts
27-Dec-17 12:13 45.589255 -122.598434 19 22ft 0kts
27-Dec-17 12:17 45.589255 -122.598434 18 22ft 0kts
27-Dec-17 12:18 45.589255 -122.598434 18 22ft 0kts
27-Dec-17 12:19 45.589255 -122.598434 18 22ft 0kts
27-Dec-17 12:20 45.589255 -122.598434 18 22ft 0kts
27-Dec-17 12:21 45.589255 -122.598434 18 22ft 0kts
27-Dec-17 12:22 45.589255 -122.598434 18 22ft 0kts
27-Dec-17 12:23 45.589255 -122.598434 18 22ft 0kts
27-Dec-17 12:24 45.589255 -122.598434 18 22ft 0kts
27-Dec-17 12:25 45.589255 -122.598434 18 22ft 0kts
27-Dec-17 12:26 45.589255 -122.598434 18 22ft 0kts
27-Dec-17 12:27 45.589255 -122.598434 18 22ft 0kts
27-Dec-17 12:28 45.589255 -122.598434 18 22ft 0kts
27-Dec-17 12:29 45.589255 -122.598434 18 22ft 0kts
27-Dec-17 12:30 45.589255 -122.598434 18 22ft 0kts
27-Dec-17 12:31 45.589255 -122.598434 18 22ft 0kts
27-Dec-17 12:32 45.589255 -122.598434 18 22ft 0kts
27-Dec-17 12:33 45.589255 -122.598434 18 22ft 0kts
27-Dec-17 12:34 45.589255 -122.598434 18 22ft 0kts
27-Dec-17 12:35 45.589255 -122.598434 18 22ft 0kts
27-Dec-17 12:36 45.589255 -122.598434 18 22ft 0kts
27-Dec-17 12:37 45.589255 -122.598434 18 22ft 0kts
27-Dec-17 12:38 45.589255 -122.598434 18 22ft 0kts
27-Dec-17 12:39 45.589255 -122.598434 18 22ft 0kts
27-Dec-17 12:40 45.589255 -122.598434 18 22ft 0kts
27-Dec-17 12:41 45.589259 -122.598432 18 22ft 0kts
27-Dec-17 12:42 45.589259 -122.598432 18 22ft 0kts
27-Dec-17 12:43 45.589248 -122.598437 19 22ft 1kts
27-Dec-17 12:44 45.588684 -122.598718 15 22ft 2kts
27-Dec-17 12:45 45.588220 -122.598324 300 21ft 2kts
27-Dec-17 12:46 45.588178 -122.598225 300 21ft 0kts
27-Dec-17 12:47 45.588178 -122.598225 300 21ft 0kts
27-Dec-17 12:48 45.589037 -122.600443 299 20ft 19kts
27-Dec-17 12:49 45.591824 -122.601280 43 22ft 10kts
27-Dec-17 12:50 45.593851 -122.598351 44 25ft 8kts
27-Dec-17 12:51 45.594372 -122.597624 43 25ft 0kts
27-Dec-17 12:52 45.594372 -122.597624 43 25ft 0kts
27-Dec-17 12:53 45.594027 -122.593674 118 22ft 28kts
27-Dec-17 12:54 45.574130 -122.543682 117 1690ft 204kts
27-Dec-17 12:55 45.546183 -122.474562 117 3891ft 210kts
27-Dec-17 12:56 45.515512 -122.398402 117 5638ft 257kts
27-Dec-17 12:57 45.480634 -122.310045 113 6230ft 265kts
27-Dec-17 12:58 45.516131 -122.237369 358 9180ft 275kts
27-Dec-17 12:59 45.580075 -122.295977 323 12969ft 291kts
27-Dec-17 13:00 45.644708 -122.367835 323 15241ft 324kts
27-Dec-17 13:01 45.719039 -122.450538 323 17541ft 350kts
27-Dec-17 13:02 45.795675 -122.536018 323 19905ft 364kts
27-Dec-17 13:03 45.881785 -122.627143 337 19997ft 433kts
27-Dec-17 13:04 45.994974 -122.657767 352 19997ft 411kts
27-Dec-17 13:05 46.107548 -122.680384 352 19997ft 416kts
27-Dec-17 13:06 46.218496 -122.702203 352 20002ft 429kts
27-Dec-17 13:07 46.333289 -122.722030 358 19999ft 412kts
27-Dec-17 13:08 46.449258 -122.726848 358 19998ft 425kts
27-Dec-17 13:09 46.566389 -122.731050 358 19999ft 427kts
27-Dec-17 13:10 46.684084 -122.735335 358 19997ft 426kts
27-Dec-17 13:11 46.797874 -122.715608 31 19999ft 418kts
27-Dec-17 13:12 46.881555 -122.625809 36 18380ft 353kts
27-Dec-17 13:13 46.960328 -122.553200 17 14721ft 337kts
27-Dec-17 13:14 47.044290 -122.515616 16 12690ft 302kts
27-Dec-17 13:15 47.121683 -122.492924 8 11796ft 299kts
27-Dec-17 13:16 47.197256 -122.479208 6 10197ft 263kts
27-Dec-17 13:17 47.267853 -122.468279 6 8695ft 251kts
27-Dec-17 13:18 47.336161 -122.457784 6 8694ft 248kts
27-Dec-17 13:19 47.403697 -122.455454 0 7699ft 235kts
27-Dec-17 13:20 47.466947 -122.455387 0 6579ft 218kts
27-Dec-17 13:21 47.526878 -122.457648 358 5148ft 216kts
27-Dec-17 13:22 47.585729 -122.460710 359 3718ft 208kts
27-Dec-17 13:23 47.640250 -122.452178 45 3704ft 216kts
27-Dec-17 13:24 47.643395 -122.370821 95 2936ft 201kts
27-Dec-17 13:25 47.620352 -122.312355 148 2696ft 182kts
27-Dec-17 13:26 47.564643 -122.310111 179 2418ft 217kts
27-Dec-17 13:27 47.510586 -122.310613 181 1524ft 196kts
27-Dec-17 13:28 47.466331 -122.311043 179 506ft 143kts
27-Dec-17 13:29 47.442507 -122.311068 171 374ft 36kts
27-Dec-17 13:30 47.438945 -122.307315 86 367ft 19kts
27-Dec-17 13:31 47.441150 -122.306364 1 377ft 23kts
27-Dec-17 13:32 47.445127 -122.306086 5 389ft 10kts
27-Dec-17 13:33 47.445597 -122.304369 89 391ft 0kts
27-Dec-17 13:34 47.445597 -122.304369 89 391ft 0kts

Navigation Log

Ident Type
Flight plan parsing failed, navigation log unavailable